createdAt,value
2022-08-30T00:02:20.980Z,99.90
2022-08-30T00:04:48.437Z,1.00
2022-08-30T00:07:15.606Z,1.00
2022-08-30T00:09:42.572Z,1.00
2022-08-30T00:12:09.889Z,1.00
2022-08-30T00:14:37.232Z,1.00
2022-08-30T00:17:04.735Z,1.00
2022-08-30T00:19:31.763Z,1.00
2022-08-30T00:21:58.791Z,1.00
2022-08-30T00:24:25.634Z,1.00
2022-08-30T00:26:52.478Z,1.00
2022-08-30T00:29:19.318Z,1.00
2022-08-30T00:31:46.563Z,1.00
2022-08-30T00:34:14.138Z,1.00
2022-08-30T00:36:40.961Z,1.00
2022-08-30T00:39:07.833Z,1.00
2022-08-30T00:41:35.070Z,1.00
2022-08-30T00:44:03.149Z,1.00
2022-08-30T00:46:30.242Z,1.00
2022-08-30T00:48:59.861Z,1.00
2022-08-30T00:51:26.801Z,1.00
2022-08-30T00:53:56.675Z,1.00
2022-08-30T00:56:25.344Z,1.00
2022-08-30T00:58:55.788Z,1.00
2022-08-30T01:01:22.912Z,1.00
2022-08-30T01:03:50.545Z,1.00
2022-08-30T01:06:18.081Z,1.00
2022-08-30T01:08:47.205Z,1.00
2022-08-30T01:11:18.545Z,1.00
2022-08-30T01:13:47.414Z,1.00
2022-08-30T01:16:15.264Z,1.00
2022-08-30T01:18:42.948Z,1.00
2022-08-30T01:21:16.207Z,1.00
2022-08-30T01:23:46.020Z,1.00
2022-08-30T01:26:15.936Z,1.00
2022-08-30T01:28:46.615Z,1.00
2022-08-30T01:31:13.748Z,1.00
2022-08-30T01:33:40.638Z,1.00
2022-08-30T01:36:12.334Z,1.00
2022-08-30T01:38:52.764Z,1.00
2022-08-30T01:41:25.965Z,1.00
2022-08-30T01:43:55.523Z,1.00
2022-08-30T01:46:26.082Z,1.00
2022-08-30T01:48:54.578Z,1.00
2022-08-30T01:51:24.236Z,1.00
2022-08-30T01:53:51.126Z,1.00
2022-08-30T01:56:18.915Z,1.00
2022-08-30T01:58:46.486Z,1.00
2022-08-30T02:01:16.831Z,1.00
2022-08-30T02:03:44.954Z,1.00
2022-08-30T02:06:16.074Z,1.00
2022-08-30T02:08:44.451Z,1.00
2022-08-30T02:11:12.304Z,1.00
2022-08-30T02:13:41.410Z,1.00
2022-08-30T02:16:11.497Z,1.00
2022-08-30T02:18:41.855Z,1.00
2022-08-30T02:21:09.218Z,1.00
2022-08-30T02:23:36.873Z,1.00
2022-08-30T02:26:04.851Z,1.00
2022-08-30T02:28:32.298Z,1.00
2022-08-30T02:30:59.765Z,1.00
2022-08-30T02:33:26.751Z,1.00
2022-08-30T02:35:54.000Z,1.00
2022-08-30T02:38:20.801Z,1.00
2022-08-30T02:40:47.806Z,1.00
2022-08-30T02:43:15.589Z,1.00
2022-08-30T02:45:42.887Z,1.00
2022-08-30T02:48:10.094Z,1.00
2022-08-30T02:50:42.011Z,1.00
2022-08-30T02:53:08.957Z,1.00
2022-08-30T02:55:36.336Z,1.00
2022-08-30T02:58:03.518Z,1.00
2022-08-30T03:00:30.470Z,1.00
2022-08-30T03:02:58.618Z,1.00
2022-08-30T03:05:26.134Z,1.00
2022-08-30T03:07:53.023Z,1.00
2022-08-30T03:10:20.154Z,1.00
2022-08-30T03:12:48.006Z,1.00
2022-08-30T03:15:15.710Z,1.00
2022-08-30T03:17:42.647Z,1.00
2022-08-30T03:20:10.347Z,1.00
2022-08-30T03:22:37.227Z,1.00
2022-08-30T03:25:05.410Z,1.00
2022-08-30T03:27:32.304Z,1.00
2022-08-30T03:29:59.153Z,1.00
2022-08-30T03:32:26.113Z,1.00
2022-08-30T03:34:53.052Z,1.00
2022-08-30T03:37:24.344Z,1.00
2022-08-30T03:39:52.473Z,1.00
2022-08-30T03:42:20.103Z,1.00
2022-08-30T03:44:48.365Z,5.80
2022-08-30T03:47:15.345Z,15.80
2022-08-30T03:49:42.636Z,13.10
2022-08-30T03:52:09.507Z,14.80
2022-08-30T03:54:36.505Z,12.90
2022-08-30T03:57:05.038Z,13.20
2022-08-30T03:59:32.083Z,5.50
2022-08-30T04:01:59.377Z,11.80
2022-08-30T04:04:27.075Z,15.80
2022-08-30T04:06:54.018Z,14.70
2022-08-30T04:09:20.854Z,14.70
2022-08-30T04:11:47.899Z,9.90
2022-08-30T04:14:14.864Z,6.60
2022-08-30T04:16:41.738Z,2.30
2022-08-30T04:19:08.759Z,1.50
2022-08-30T04:21:36.788Z,6.50
2022-08-30T04:24:10.047Z,9.50
2022-08-30T04:26:37.088Z,11.30
2022-08-30T04:29:04.131Z,7.10
2022-08-30T04:31:31.438Z,6.10
2022-08-30T04:33:58.402Z,7.50
2022-08-30T04:36:25.478Z,12.60
2022-08-30T04:38:52.455Z,14.60
2022-08-30T04:41:20.922Z,10.90
2022-08-30T04:43:51.335Z,10.20
2022-08-30T04:46:19.139Z,9.20
2022-08-30T04:48:46.431Z,9.70
2022-08-30T04:51:15.784Z,12.20
2022-08-30T04:53:43.207Z,19.00
2022-08-30T04:56:12.943Z,19.30
2022-08-30T04:58:39.800Z,21.20
2022-08-30T05:01:19.039Z,21.50
2022-08-30T05:03:48.357Z,19.60
2022-08-30T05:06:15.694Z,20.50
2022-08-30T05:08:46.277Z,23.30
2022-08-30T05:11:15.465Z,27.00
2022-08-30T05:13:42.718Z,34.20
2022-08-30T05:16:09.962Z,25.30
2022-08-30T05:18:37.572Z,21.50
2022-08-30T05:21:11.085Z,22.50
2022-08-30T05:23:39.535Z,24.20
2022-08-30T05:26:31.185Z,15.30
2022-08-30T05:28:58.056Z,15.20
2022-08-30T05:31:33.015Z,13.50
2022-08-30T05:34:00.703Z,18.00
2022-08-30T05:36:29.995Z,7.40
2022-08-30T05:38:57.214Z,6.60
2022-08-30T05:41:26.556Z,7.10
2022-08-30T05:43:56.220Z,5.50
2022-08-30T05:46:24.067Z,7.10
2022-08-30T05:48:51.587Z,10.20
2022-08-30T05:51:24.066Z,6.50
2022-08-30T05:53:53.628Z,3.90
2022-08-30T05:56:25.232Z,1.60
2022-08-30T05:58:53.099Z,1.00
2022-08-30T06:01:32.578Z,1.00
2022-08-30T06:04:04.047Z,1.00
2022-08-30T06:06:32.770Z,1.00
2022-08-30T06:08:59.856Z,1.00
2022-08-30T06:11:27.029Z,1.00
2022-08-30T06:13:55.254Z,1.00
2022-08-30T06:16:25.707Z,1.00
2022-08-30T06:18:53.343Z,1.00
2022-08-30T06:21:21.446Z,99.90
2022-08-30T06:23:48.333Z,99.90
2022-08-30T06:26:15.911Z,99.90
2022-08-30T06:28:43.367Z,99.90
2022-08-30T06:31:12.770Z,99.90
2022-08-30T06:33:40.370Z,1.00
2022-08-30T06:36:10.145Z,41.70
2022-08-30T06:38:38.211Z,99.90
2022-08-30T06:41:10.529Z,1.00
2022-08-30T06:43:37.530Z,99.90
2022-08-30T06:46:06.918Z,99.90
2022-08-30T06:48:33.802Z,99.90
2022-08-30T06:51:00.734Z,48.80
2022-08-30T06:53:30.947Z,1.00
2022-08-30T06:56:05.026Z,1.00
2022-08-30T06:58:32.140Z,1.00
2022-08-30T07:00:59.223Z,1.00
2022-08-30T07:03:29.362Z,99.90
2022-08-30T07:05:57.514Z,99.90
2022-08-30T07:08:25.489Z,99.90
2022-08-30T07:10:54.594Z,99.90
2022-08-30T07:13:23.949Z,1.00
2022-08-30T07:15:52.324Z,99.90
2022-08-30T07:18:37.938Z,1.00
2022-08-30T07:21:13.892Z,99.90
2022-08-30T07:23:41.556Z,99.90
2022-08-30T07:26:12.563Z,99.90
2022-08-30T07:28:41.266Z,99.90
2022-08-30T07:31:09.893Z,99.90
2022-08-30T07:33:36.994Z,99.90
2022-08-30T07:36:05.506Z,99.90
2022-08-30T07:38:32.953Z,99.90
2022-08-30T07:41:01.345Z,1.00
2022-08-30T07:43:32.654Z,1.00
2022-08-30T07:46:05.510Z,1.00
2022-08-30T07:48:32.787Z,99.90
2022-08-30T07:51:05.054Z,99.40
2022-08-30T07:53:32.224Z,1.00
2022-08-30T07:55:59.240Z,1.00
2022-08-30T07:58:26.072Z,1.00
2022-08-30T08:00:53.010Z,1.00
2022-08-30T08:03:19.831Z,59.20
2022-08-30T08:05:46.726Z,1.00
2022-08-30T08:08:14.550Z,1.00
2022-08-30T08:10:43.096Z,1.00
2022-08-30T08:13:10.328Z,64.40
2022-08-30T08:15:37.872Z,35.00
2022-08-30T08:18:05.990Z,1.00
2022-08-30T08:20:34.215Z,1.00
2022-08-30T08:23:01.603Z,99.90
2022-08-30T08:25:28.876Z,1.00
2022-08-30T08:27:57.789Z,1.00
2022-08-30T08:30:25.008Z,99.90
2022-08-30T08:32:52.682Z,99.90
2022-08-30T08:35:19.911Z,1.00
2022-08-30T08:37:46.878Z,1.00
2022-08-30T08:40:18.464Z,1.00
2022-08-30T08:43:02.985Z,99.90
2022-08-30T08:45:42.357Z,1.00
2022-08-30T08:48:51.983Z,1.00
2022-08-30T08:51:45.519Z,79.50
2022-08-30T08:54:19.359Z,1.00
2022-08-30T08:56:46.236Z,1.00
2022-08-30T08:59:16.196Z,1.00
2022-08-30T09:01:43.355Z,99.90
2022-08-30T09:04:14.785Z,99.90
2022-08-30T09:07:05.623Z,99.90
2022-08-30T09:09:36.067Z,1.00
2022-08-30T09:12:04.467Z,1.00
2022-08-30T09:14:38.908Z,99.90
2022-08-30T09:17:11.284Z,1.00
2022-08-30T09:19:46.246Z,1.00
2022-08-30T09:22:32.029Z,99.90
2022-08-30T09:25:14.239Z,1.00
2022-08-30T09:27:42.857Z,99.90
2022-08-30T09:30:23.786Z,1.00
2022-08-30T09:32:55.549Z,1.00
2022-08-30T09:35:46.736Z,1.00
2022-08-30T09:38:23.998Z,1.00
2022-08-30T09:40:52.117Z,1.00
2022-08-30T09:43:23.956Z,99.90
2022-08-30T09:46:01.683Z,99.90
2022-08-30T09:48:46.193Z,51.60
2022-08-30T09:51:13.342Z,99.90
2022-08-30T09:54:17.115Z,99.90
2022-08-30T09:57:16.890Z,99.90
2022-08-30T09:59:54.751Z,99.90
2022-08-30T10:02:40.462Z,99.90
2022-08-30T10:05:29.658Z,1.00
2022-08-30T10:08:12.775Z,1.00
2022-08-30T10:10:48.909Z,99.90
2022-08-30T10:13:29.948Z,99.90
2022-08-30T10:16:26.943Z,1.00
2022-08-30T10:19:08.762Z,99.90
2022-08-30T10:22:08.988Z,99.90
2022-08-30T10:24:42.696Z,1.00
2022-08-30T10:27:23.647Z,1.00
2022-08-30T10:29:59.302Z,99.90
2022-08-30T10:32:54.245Z,1.00
2022-08-30T10:35:27.598Z,99.90
2022-08-30T10:38:06.400Z,99.90
2022-08-30T10:40:58.455Z,99.90
2022-08-30T10:43:35.840Z,38.30
2022-08-30T10:46:09.388Z,1.00
2022-08-30T10:48:41.231Z,1.00
2022-08-30T10:51:23.118Z,99.90
2022-08-30T10:54:18.594Z,99.90
2022-08-30T10:56:49.524Z,99.90
2022-08-30T10:59:20.483Z,99.90
2022-08-30T11:02:14.462Z,99.90
2022-08-30T11:05:18.862Z,99.90
2022-08-30T11:08:07.548Z,99.90
2022-08-30T11:11:26.109Z,1.00
2022-08-30T11:13:57.148Z,1.00
2022-08-30T11:16:43.335Z,1.00
2022-08-30T11:19:39.546Z,99.90
2022-08-30T11:22:13.216Z,99.90
2022-08-30T11:25:09.681Z,99.90
2022-08-30T11:27:51.605Z,99.90
2022-08-30T11:30:26.948Z,19.50
2022-08-30T11:33:25.198Z,99.90
2022-08-30T11:35:53.802Z,35.70
2022-08-30T11:38:40.558Z,1.00
2022-08-30T11:41:11.856Z,99.90
2022-08-30T11:43:40.110Z,1.00
2022-08-30T11:46:28.709Z,99.90
2022-08-30T11:49:15.612Z,99.90
2022-08-30T11:52:28.843Z,99.90
2022-08-30T11:55:31.957Z,99.90
2022-08-30T11:58:43.888Z,99.90
2022-08-30T12:01:41.999Z,1.00
2022-08-30T12:04:19.606Z,1.00
2022-08-30T12:06:49.391Z,99.90
2022-08-30T12:09:26.570Z,99.90
2022-08-30T12:11:59.616Z,97.20
2022-08-30T12:14:40.910Z,99.90
2022-08-30T12:17:38.786Z,99.90
2022-08-30T12:20:17.825Z,90.40
2022-08-30T12:22:45.624Z,91.50
2022-08-30T12:25:38.569Z,84.00
2022-08-30T12:28:12.081Z,93.00
2022-08-30T12:30:40.920Z,18.50
2022-08-30T12:33:14.688Z,1.00
2022-08-30T12:35:43.893Z,1.00
2022-08-30T12:38:27.566Z,30.60
2022-08-30T12:41:00.294Z,50.00
2022-08-30T12:43:41.471Z,1.00
2022-08-30T12:46:12.429Z,1.00
2022-08-30T12:48:41.539Z,1.00
2022-08-30T12:51:11.261Z,1.00
2022-08-30T12:53:43.165Z,1.00
2022-08-30T12:56:15.200Z,1.00
2022-08-30T12:58:53.298Z,1.00
2022-08-30T13:01:24.026Z,1.00
2022-08-30T13:04:18.599Z,1.00
2022-08-30T13:06:59.768Z,1.00
2022-08-30T13:09:36.141Z,1.00
2022-08-30T13:12:25.925Z,1.00
2022-08-30T13:14:54.064Z,1.00
2022-08-30T13:17:28.924Z,1.00
2022-08-30T13:19:55.938Z,1.00
2022-08-30T13:22:34.884Z,1.00
2022-08-30T13:25:03.737Z,1.00
2022-08-30T13:27:31.350Z,1.00
2022-08-30T13:30:22.429Z,1.00
2022-08-30T13:32:50.388Z,1.00
2022-08-30T13:35:17.283Z,1.00
2022-08-30T13:37:49.822Z,1.00
2022-08-30T13:40:19.706Z,1.00
2022-08-30T13:42:47.336Z,1.00
2022-08-30T13:48:04.185Z,1.00
2022-08-30T13:50:31.134Z,1.00
2022-08-30T13:52:58.259Z,1.00
2022-08-30T13:55:25.161Z,1.00
2022-08-30T13:57:54.583Z,99.90
2022-08-30T14:00:24.717Z,99.90
2022-08-30T14:02:57.319Z,99.90
2022-08-30T14:05:54.556Z,99.90
2022-08-30T14:11:18.533Z,99.90
2022-08-30T14:16:37.345Z,99.90
2022-08-30T14:19:05.760Z,99.90
2022-08-30T14:21:33.217Z,99.90
2022-08-30T14:24:00.204Z,99.90
2022-08-30T14:26:32.517Z,99.90
2022-08-30T14:29:04.374Z,99.90
2022-08-30T14:31:32.844Z,99.90
2022-08-30T14:34:04.170Z,99.90
2022-08-30T14:36:34.846Z,99.90
2022-08-30T14:39:08.249Z,99.90
2022-08-30T14:41:43.461Z,99.90
2022-08-30T14:44:12.006Z,99.90
2022-08-30T14:46:38.933Z,99.90
2022-08-30T14:49:07.457Z,99.90
2022-08-30T14:51:37.277Z,99.90
2022-08-30T14:54:04.103Z,99.90
2022-08-30T14:56:31.476Z,99.90
2022-08-30T14:59:00.679Z,99.90
2022-08-30T15:01:29.283Z,99.90
2022-08-30T15:03:57.158Z,99.90
2022-08-30T15:06:24.455Z,99.90
2022-08-30T15:08:54.237Z,99.90
2022-08-30T15:11:23.679Z,99.90
2022-08-30T15:13:52.880Z,99.90
2022-08-30T15:16:27.185Z,99.90
2022-08-30T15:18:54.357Z,99.90
2022-08-30T15:21:33.588Z,99.90
2022-08-30T15:24:02.521Z,99.90
2022-08-30T15:26:29.559Z,99.90
2022-08-30T15:28:56.933Z,99.90
2022-08-30T15:31:28.148Z,99.90
2022-08-30T15:33:55.270Z,99.90
2022-08-30T15:36:24.177Z,99.90
2022-08-30T15:38:55.459Z,99.90
2022-08-30T15:41:23.513Z,99.90
2022-08-30T15:43:50.576Z,99.90
2022-08-30T15:46:29.498Z,99.90
2022-08-30T15:49:01.547Z,99.90
2022-08-30T15:51:30.769Z,99.90
2022-08-30T15:54:08.810Z,99.90
2022-08-30T15:56:39.046Z,99.90
2022-08-30T15:59:05.990Z,99.90
2022-08-30T16:01:34.531Z,99.90
2022-08-30T16:04:02.073Z,99.90
2022-08-30T16:06:31.951Z,99.90
2022-08-30T16:08:59.304Z,99.90
2022-08-30T16:11:26.524Z,99.90
2022-08-30T16:13:55.585Z,99.90
2022-08-30T16:16:23.946Z,99.90
2022-08-30T16:18:53.971Z,99.90
2022-08-30T16:21:30.042Z,99.90
2022-08-30T16:23:59.451Z,99.90
2022-08-30T16:26:28.333Z,99.90
2022-08-30T16:28:56.670Z,99.90
2022-08-30T16:31:24.999Z,99.90
2022-08-30T16:33:54.368Z,99.90
2022-08-30T16:36:22.915Z,99.90
2022-08-30T16:38:53.559Z,99.90
2022-08-30T16:41:24.563Z,99.90
2022-08-30T16:43:53.576Z,99.90
2022-08-30T16:46:27.258Z,99.90
2022-08-30T16:48:57.004Z,99.90
2022-08-30T16:51:25.691Z,99.90
2022-08-30T16:53:56.079Z,99.90
2022-08-30T16:56:26.640Z,99.90
2022-08-30T16:59:01.355Z,99.90
2022-08-30T17:01:32.379Z,99.90
2022-08-30T17:04:02.807Z,99.90
2022-08-30T17:06:30.072Z,99.90
2022-08-30T17:08:57.141Z,99.90
2022-08-30T17:11:25.158Z,99.90
2022-08-30T17:13:52.379Z,99.90
2022-08-30T17:16:22.731Z,99.90
2022-08-30T17:18:56.058Z,99.90
2022-08-30T17:21:27.410Z,99.90
2022-08-30T17:23:54.207Z,99.90
2022-08-30T17:26:25.930Z,99.90
2022-08-30T17:28:53.058Z,99.90
2022-08-30T17:31:20.034Z,99.90
2022-08-30T17:33:49.061Z,99.90
2022-08-30T17:36:16.855Z,99.90
2022-08-30T17:38:44.963Z,99.90
2022-08-30T17:41:13.182Z,99.90
2022-08-30T17:43:40.284Z,99.90
2022-08-30T17:46:12.114Z,99.90
2022-08-30T17:48:40.699Z,99.90
2022-08-30T17:51:07.867Z,99.90
2022-08-30T17:53:35.491Z,99.90
2022-08-30T17:56:03.511Z,99.90
2022-08-30T17:58:30.662Z,99.90
2022-08-30T18:01:12.339Z,99.90
2022-08-30T18:03:40.134Z,99.90
2022-08-30T18:06:07.617Z,99.90
2022-08-30T18:08:35.977Z,99.90
2022-08-30T18:11:04.391Z,99.90
2022-08-30T18:13:33.589Z,99.90
2022-08-30T18:16:03.352Z,99.90
2022-08-30T18:18:31.342Z,99.90
2022-08-30T18:20:58.902Z,1.00
2022-08-30T18:23:26.871Z,1.00
2022-08-30T18:25:57.359Z,1.00
2022-08-30T18:28:24.358Z,1.00
2022-08-30T18:30:53.482Z,1.00
2022-08-30T18:33:20.610Z,1.00
2022-08-30T18:35:48.734Z,1.00
2022-08-30T18:38:15.622Z,1.00
2022-08-30T18:40:42.841Z,1.00
2022-08-30T18:43:11.445Z,1.00
2022-08-30T18:45:41.610Z,1.00
2022-08-30T18:48:08.499Z,1.00
2022-08-30T18:50:36.371Z,1.00
2022-08-30T18:53:03.783Z,1.00
2022-08-30T18:55:31.071Z,1.00
2022-08-30T18:57:58.127Z,1.00
2022-08-30T19:00:29.338Z,1.00
2022-08-30T19:02:57.067Z,1.00
2022-08-30T19:05:25.534Z,1.00
2022-08-30T19:07:55.131Z,1.00
2022-08-30T19:10:24.751Z,1.00
2022-08-30T19:12:53.131Z,1.00
2022-08-30T19:15:20.653Z,1.00
2022-08-30T19:17:48.301Z,1.00
2022-08-30T19:20:21.973Z,1.00
2022-08-30T19:23:09.586Z,1.00
2022-08-30T19:25:36.049Z,56.40
2022-08-30T19:28:03.099Z,99.90
2022-08-30T19:30:32.857Z,87.70
2022-08-30T19:33:00.005Z,99.90
2022-08-30T19:35:27.106Z,99.90
2022-08-30T19:37:57.878Z,99.90
2022-08-30T19:40:25.538Z,81.60
2022-08-30T19:42:52.787Z,99.90
2022-08-30T19:45:21.963Z,99.90
2022-08-30T19:47:51.964Z,99.90
2022-08-30T19:50:20.689Z,99.90
2022-08-30T19:52:53.726Z,99.90
2022-08-30T19:55:28.530Z,99.90
2022-08-30T19:57:57.142Z,99.90
2022-08-30T20:00:24.093Z,99.90
2022-08-30T20:05:37.941Z,99.90
2022-08-30T20:08:04.766Z,99.90
2022-08-30T20:10:31.636Z,99.90
2022-08-30T20:12:58.558Z,99.90
2022-08-30T20:15:26.347Z,1.00
2022-08-30T20:18:06.036Z,1.00
2022-08-30T20:20:40.087Z,1.00
2022-08-30T20:23:06.912Z,1.00
2022-08-30T20:25:34.783Z,1.00
2022-08-30T20:28:02.109Z,1.00
2022-08-30T20:30:29.001Z,1.00
2022-08-30T20:32:56.421Z,1.00
2022-08-30T20:35:23.811Z,40.90
2022-08-30T20:37:51.029Z,99.90
2022-08-30T20:40:18.376Z,99.90
2022-08-30T20:42:46.428Z,99.90
2022-08-30T20:45:16.298Z,99.90
2022-08-30T20:47:43.868Z,1.00
2022-08-30T20:50:14.096Z,1.00
2022-08-30T20:52:41.934Z,1.00
2022-08-30T20:55:10.060Z,1.00
2022-08-30T20:57:37.161Z,1.00
2022-08-30T21:02:52.578Z,1.00
2022-08-30T21:05:19.522Z,1.00
2022-08-30T21:07:46.814Z,1.00
2022-08-30T21:10:14.599Z,1.00
2022-08-30T21:12:42.880Z,99.90
2022-08-30T21:15:33.940Z,99.90
2022-08-30T21:17:57.421Z,99.90
2022-08-30T21:20:24.246Z,99.90
2022-08-30T21:22:51.050Z,99.90
2022-08-30T21:25:18.087Z,1.00
2022-08-30T21:27:44.934Z,1.00
2022-08-30T21:30:13.768Z,1.00
2022-08-30T21:32:41.488Z,1.00
2022-08-30T21:35:27.693Z,1.00
2022-08-30T21:37:55.023Z,1.00
2022-08-30T21:40:22.012Z,1.00
2022-08-30T21:42:48.943Z,48.90
2022-08-30T21:45:15.915Z,47.70
2022-08-30T21:47:42.841Z,1.00
2022-08-30T21:50:09.946Z,1.00
2022-08-30T21:52:36.791Z,7.40
2022-08-30T21:55:04.422Z,1.00
2022-08-30T21:57:31.496Z,98.50
2022-08-30T21:59:58.466Z,99.90
2022-08-30T22:02:25.357Z,88.50
2022-08-30T22:04:52.233Z,18.80
2022-08-30T22:07:19.213Z,99.90
2022-08-30T22:09:46.090Z,1.00
2022-08-30T22:12:12.941Z,1.00
2022-08-30T22:14:41.190Z,1.00
2022-08-30T22:17:08.197Z,48.70
2022-08-30T22:19:35.156Z,1.00
2022-08-30T22:22:02.083Z,1.00
2022-08-30T22:24:32.216Z,1.00
2022-08-30T22:27:03.409Z,99.90
2022-08-30T22:29:30.535Z,1.00
2022-08-30T22:31:58.598Z,1.00
2022-08-30T22:34:25.977Z,1.00
2022-08-30T22:36:52.847Z,1.00
2022-08-30T22:39:19.740Z,74.50
2022-08-30T22:41:47.280Z,99.90
2022-08-30T22:44:14.128Z,99.90
2022-08-30T22:46:40.994Z,1.00
2022-08-30T22:49:09.394Z,99.90
2022-08-30T22:51:37.561Z,1.00
2022-08-30T22:54:05.835Z,1.00
2022-08-30T22:56:34.638Z,1.00
2022-08-30T22:59:02.647Z,1.00
2022-08-30T23:01:33.335Z,99.90
2022-08-30T23:04:01.350Z,1.00
2022-08-30T23:06:29.395Z,1.00
2022-08-30T23:08:56.831Z,99.90
2022-08-30T23:11:24.194Z,99.90
2022-08-30T23:13:51.406Z,1.00
2022-08-30T23:16:20.250Z,99.90
2022-08-30T23:18:48.042Z,99.90
2022-08-30T23:21:18.135Z,99.90
2022-08-30T23:24:03.423Z,1.00
2022-08-30T23:26:49.492Z,1.00
2022-08-30T23:29:35.460Z,99.90
2022-08-30T23:32:21.333Z,99.90
2022-08-30T23:35:06.742Z,90.30
2022-08-30T23:37:52.991Z,1.00
2022-08-30T23:40:40.331Z,99.90
2022-08-30T23:43:26.838Z,1.00
2022-08-30T23:46:18.891Z,99.90
2022-08-30T23:49:06.203Z,1.00
2022-08-30T23:51:51.874Z,1.00
2022-08-30T23:54:37.309Z,16.10
2022-08-30T23:57:23.837Z,99.90
